Time,TemperatureF,DewpointF,PressureIn,WindDirection,WindDirectionDegrees,WindSpeedMPH,WindSpeedGustMPH,Humidity,HourlyPrecipIn,Conditions,Clouds,dailyrainin,SoftwareType,DateUTC
2013-01-17 00:02:00,9.0,-4.0,30.19,WNW,302,2.0,6.0,55,0.00,,,0.00,,2013-01-17 06:02:00,
2013-01-17 00:12:00,9.0,-4.0,30.19,WNW,302,2.0,6.0,55,0.00,,,0.00,,2013-01-17 06:12:00,
2013-01-17 04:22:00,5.0,-4.0,30.27,West,273,0.0,4.0,66,0.00,,,0.00,,2013-01-17 10:22:00,
2013-01-17 04:33:00,6.0,-3.0,30.28,NW,314,2.0,5.0,65,0.00,,,0.00,,2013-01-17 10:33:00,
2013-01-17 04:43:00,6.0,-3.0,30.28,NW,314,2.0,5.0,65,0.00,,,0.00,,2013-01-17 10:43:00,
2013-01-17 04:53:00,6.0,-3.0,30.28,WNW,291,2.0,4.0,65,0.00,,,0.00,,2013-01-17 10:53:00,
2013-01-17 05:02:00,5.0,-4.0,30.29,NW,304,2.0,6.0,65,0.00,,,0.00,,2013-01-17 11:02:00,
2013-01-17 05:12:00,5.0,-4.0,30.29,NW,304,2.0,6.0,65,0.00,,,0.00,,2013-01-17 11:12:00,
2013-01-17 05:22:00,5.0,-4.0,30.28,West,262,1.0,4.0,66,0.00,,,0.00,,2013-01-17 11:22:00,
2013-01-17 05:33:00,6.0,-3.0,30.28,WSW,252,1.0,3.0,65,0.00,,,0.00,,2013-01-17 11:33:00,
2013-01-17 05:42:00,6.0,-3.0,30.28,WSW,252,1.0,3.0,65,0.00,,,0.00,,2013-01-17 11:42:00,
2013-01-17 05:53:00,6.0,-4.0,30.29,NW,305,0.0,4.0,64,0.00,,,0.00,,2013-01-17 11:53:00,
2013-01-17 06:02:00,5.0,-4.0,30.29,NW,309,0.0,3.0,64,0.00,,,0.00,,2013-01-17 12:02:00,
2013-01-17 06:12:00,5.0,-4.0,30.29,NW,309,0.0,3.0,64,0.00,,,0.00,,2013-01-17 12:12:00,
2013-01-17 06:22:00,5.0,-4.0,30.29,NW,309,0.0,3.0,64,0.00,,,0.00,,2013-01-17 12:22:00,
2013-01-17 06:32:00,5.0,-4.0,30.29,NW,309,0.0,3.0,64,0.00,,,0.00,,2013-01-17 12:32:00,
2013-01-17 06:42:00,5.0,-4.0,30.29,NW,309,0.0,3.0,64,0.00,,,0.00,,2013-01-17 12:42:00,
2013-01-17 07:23:00,5.0,-4.0,30.28,WSW,243,0.0,2.0,65,0.00,,,0.00,,2013-01-17 13:23:00,
2013-01-17 07:33:00,5.0,-4.0,30.28,SW,224,2.0,3.0,65,0.00,,,0.00,,2013-01-17 13:33:00,
2013-01-17 07:43:00,5.0,-4.0,30.28,SW,224,2.0,3.0,65,0.00,,,0.00,,2013-01-17 13:43:00,
2013-01-17 07:53:00,5.0,-4.0,30.29,SW,232,1.0,2.0,66,0.00,,,0.00,,2013-01-17 13:53:00,
2013-01-17 08:03:00,5.0,-4.0,30.29,WNW,283,0.0,4.0,66,0.00,,,0.00,,2013-01-17 14:03:00,
2013-01-17 08:12:00,5.0,-4.0,30.29,WNW,283,0.0,4.0,66,0.00,,,0.00,,2013-01-17 14:12:00,
2013-01-17 08:23:00,5.0,-4.0,30.29,WSW,255,1.0,3.0,66,0.00,,,0.00,,2013-01-17 14:23:00,
2013-01-17 08:33:00,5.0,-4.0,30.31,SW,225,0.0,1.0,66,0.00,,,0.00,,2013-01-17 14:33:00,
2013-01-17 08:42:00,5.0,-4.0,30.31,SW,225,0.0,1.0,66,0.00,,,0.00,,2013-01-17 14:42:00,
2013-01-17 08:53:00,5.0,-4.0,30.32,SW,231,1.0,3.0,65,0.00,,,0.00,,2013-01-17 14:53:00,
2013-01-17 09:03:00,6.0,-3.0,30.32,SW,225,1.0,3.0,65,0.00,,,0.00,,2013-01-17 15:03:00,
2013-01-17 09:12:00,6.0,-3.0,30.32,SW,225,1.0,3.0,65,0.00,,,0.00,,2013-01-17 15:12:00,
2013-01-17 09:22:00,6.0,-4.0,30.32,West,265,0.0,2.0,64,0.00,,,0.00,,2013-01-17 15:22:00,
2013-01-17 09:33:00,7.0,-3.0,30.32,West,276,0.0,2.0,63,0.00,,,0.00,,2013-01-17 15:33:00,
2013-01-17 09:43:00,7.0,-3.0,30.32,West,276,0.0,2.0,63,0.00,,,0.00,,2013-01-17 15:43:00,
2013-01-17 09:53:00,8.0,-3.0,30.32,WSW,240,1.0,3.0,60,0.00,,,0.00,,2013-01-17 15:53:00,
2013-01-17 10:02:00,8.0,-3.0,30.32,WNW,283,0.0,1.0,60,0.00,,,0.00,,2013-01-17 16:02:00,
2013-01-17 10:12:00,8.0,-3.0,30.32,WNW,283,0.0,1.0,60,0.00,,,0.00,,2013-01-17 16:12:00,
2013-01-17 10:22:00,8.0,-3.0,30.32,WNW,283,0.0,1.0,60,0.00,,,0.00,,2013-01-17 16:22:00,
2013-01-17 10:33:00,8.0,-3.0,30.32,WNW,283,0.0,1.0,60,0.00,,,0.00,,2013-01-17 16:33:00,
2013-01-17 12:34:00,13.0,4.0,30.32,WNW,297,2.0,8.0,67,0.00,,,0.00,,2013-01-17 18:34:00,
2013-01-17 12:44:00,13.0,4.0,30.32,WNW,297,2.0,8.0,67,0.00,,,0.00,,2013-01-17 18:44:00,
2013-01-17 12:53:00,14.0,5.0,30.32,NW,323,2.0,5.0,66,0.00,,,0.00,,2013-01-17 18:53:00,
2013-01-17 13:03:00,15.0,6.0,30.32,NW,305,2.0,6.0,66,0.00,,,0.00,,2013-01-17 19:03:00,
2013-01-17 13:12:00,15.0,6.0,30.32,NW,305,2.0,6.0,66,0.00,,,0.00,,2013-01-17 19:12:00,
2013-01-17 13:23:00,15.0,5.0,30.31,NW,312,2.0,10.0,65,0.00,,,0.00,,2013-01-17 19:23:00,
2013-01-17 13:33:00,16.0,7.0,30.31,NNW,330,2.0,9.0,66,0.00,,,0.00,,2013-01-17 19:33:00,
2013-01-17 13:43:00,16.0,7.0,30.31,NNW,330,2.0,9.0,66,0.00,,,0.00,,2013-01-17 19:43:00,
2013-01-17 13:53:00,16.0,7.0,30.31,NW,316,3.0,8.0,66,0.00,,,0.00,,2013-01-17 19:53:00,
2013-01-17 14:03:00,17.0,7.0,30.30,NNW,330,2.0,8.0,65,0.00,,,0.00,,2013-01-17 20:03:00,
2013-01-17 14:12:00,17.0,7.0,30.30,NNW,330,2.0,8.0,65,0.00,,,0.00,,2013-01-17 20:12:00,
2013-01-17 14:23:00,17.0,7.0,30.30,NE,36,3.0,6.0,65,0.00,,,0.00,,2013-01-17 20:23:00,
2013-01-17 14:33:00,17.0,7.0,30.30,NE,36,3.0,6.0,65,0.00,,,0.00,,2013-01-17 20:33:00,
2013-01-17 14:43:00,17.0,7.0,30.30,NE,36,3.0,6.0,65,0.00,,,0.00,,2013-01-17 20:43:00,
2013-01-17 14:54:00,17.0,7.0,30.30,NE,36,3.0,6.0,65,0.00,,,0.00,,2013-01-17 20:54:00,
2013-01-17 17:33:00,12.0,4.0,30.32,NNW,328,0.0,0.0,71,0.00,,,0.00,,2013-01-17 23:33:00,
2013-01-17 17:43:00,12.0,4.0,30.32,NNW,328,0.0,0.0,71,0.00,,,0.00,,2013-01-17 23:43:00,
2013-01-17 17:53:00,11.0,4.0,30.32,NNW,328,0.0,0.0,73,0.00,,,0.00,,2013-01-17 23:53:00,
2013-01-17 18:02:00,9.0,3.0,30.32,NNW,328,0.0,0.0,76,0.00,,,0.00,,2013-01-18 00:02:00,
2013-01-17 18:12:00,9.0,3.0,30.32,NNW,328,0.0,0.0,76,0.00,,,0.00,,2013-01-18 00:12:00,
2013-01-17 18:23:00,9.0,4.0,30.32,NNW,328,0.0,0.0,78,0.00,,,0.00,,2013-01-18 00:23:00,
2013-01-17 18:32:00,9.0,4.0,30.32,NNW,328,0.0,0.0,78,0.00,,,0.00,,2013-01-18 00:32:00,
2013-01-17 18:42:00,8.0,3.0,30.32,NNW,328,0.0,0.0,80,0.00,,,0.00,,2013-01-18 00:42:00,
2013-01-17 18:53:00,7.0,2.0,30.32,NNW,328,0.0,0.0,80,0.00,,,0.00,,2013-01-18 00:53:00,
2013-01-17 19:02:00,7.0,2.0,30.32,NNW,328,0.0,0.0,81,0.00,,,0.00,,2013-01-18 01:02:00,
2013-01-17 19:12:00,7.0,2.0,30.32,NNW,328,0.0,0.0,81,0.00,,,0.00,,2013-01-18 01:12:00,
2013-01-17 19:22:00,6.0,2.0,30.32,NNW,328,0.0,0.0,84,0.00,,,0.00,,2013-01-18 01:22:00,
2013-01-17 19:33:00,6.0,2.0,30.32,NNW,328,0.0,0.0,84,0.00,,,0.00,,2013-01-18 01:33:00,
2013-01-17 19:43:00,6.0,2.0,30.32,NNW,328,0.0,0.0,84,0.00,,,0.00,,2013-01-18 01:43:00,
2013-01-17 19:53:00,6.0,2.0,30.32,NNW,328,0.0,0.0,84,0.00,,,0.00,,2013-01-18 01:53:00,
2013-01-17 20:02:00,6.0,2.0,30.32,NNW,328,0.0,0.0,84,0.00,,,0.00,,2013-01-18 02:02:00,